createdAt,value
2022-12-01T00:01:56.029Z,14.07
2022-12-01T00:04:23.162Z,12.98
2022-12-01T00:06:50.265Z,12.82
2022-12-01T00:09:40.788Z,14.18
2022-12-01T00:12:07.951Z,13.65
2022-12-01T00:14:35.124Z,14.45
2022-12-01T00:17:02.223Z,13.05
2022-12-01T00:19:29.372Z,12.52
2022-12-01T00:21:56.502Z,14.32
2022-12-01T00:24:24.509Z,11.40
2022-12-01T00:26:51.624Z,10.88
2022-12-01T00:29:18.729Z,10.38
2022-12-01T00:31:45.910Z,9.70
2022-12-01T00:34:22.578Z,11.65
2022-12-01T00:36:49.679Z,10.93
2022-12-01T00:39:16.805Z,9.82
2022-12-01T00:41:43.920Z,13.07
2022-12-01T00:44:11.146Z,11.45
2022-12-01T00:46:38.244Z,12.75
2022-12-01T00:49:06.125Z,10.48
2022-12-01T00:51:33.230Z,10.18
2022-12-01T00:54:00.358Z,11.35
2022-12-01T00:56:27.528Z,9.20
2022-12-01T00:58:54.649Z,12.63
2022-12-01T01:01:21.834Z,11.85
2022-12-01T01:03:49.047Z,10.85
2022-12-01T01:06:16.518Z,8.35
2022-12-01T01:08:43.590Z,10.50
2022-12-01T01:11:10.811Z,12.60
2022-12-01T01:13:38.186Z,11.48
2022-12-01T01:16:07.386Z,11.30
2022-12-01T01:18:35.148Z,11.45
2022-12-01T01:21:04.596Z,13.38
2022-12-01T01:23:31.687Z,12.85
2022-12-01T01:26:03.231Z,11.60
2022-12-01T01:28:31.075Z,11.57
2022-12-01T01:30:58.467Z,15.10
2022-12-01T01:33:25.617Z,12.00
2022-12-01T01:35:52.713Z,11.77
2022-12-01T01:38:19.811Z,14.88
2022-12-01T01:40:47.360Z,12.20
2022-12-01T01:43:18.820Z,13.73
2022-12-01T01:45:46.077Z,13.18
2022-12-01T01:48:14.463Z,10.80
2022-12-01T01:50:42.547Z,14.30
2022-12-01T01:53:11.483Z,12.13
2022-12-01T01:55:38.797Z,14.10
2022-12-01T01:58:07.799Z,12.48
2022-12-01T02:00:34.930Z,11.60
2022-12-01T02:03:02.286Z,13.13
2022-12-01T02:05:31.243Z,11.15
2022-12-01T02:07:59.441Z,11.55
2022-12-01T02:10:34.823Z,11.48
2022-12-01T02:13:05.068Z,11.23
2022-12-01T02:15:41.092Z,10.13
2022-12-01T02:18:17.879Z,13.07
2022-12-01T02:20:51.015Z,13.75
2022-12-01T02:23:36.703Z,13.50
2022-12-01T02:26:43.703Z,12.43
2022-12-01T02:29:25.594Z,14.88
2022-12-01T02:32:04.835Z,14.15
2022-12-01T02:34:39.478Z,11.85
2022-12-01T02:37:06.571Z,10.73
2022-12-01T02:39:39.198Z,10.05
2022-12-01T02:42:38.612Z,12.85
2022-12-01T02:45:07.767Z,12.38
2022-12-01T02:47:36.992Z,10.45
2022-12-01T02:50:05.097Z,12.68
2022-12-01T02:52:32.342Z,8.68
2022-12-01T02:54:59.465Z,12.95
2022-12-01T02:57:26.587Z,12.35
2022-12-01T03:00:31.867Z,11.35
2022-12-01T03:03:04.257Z,11.10
2022-12-01T03:05:31.368Z,12.95
2022-12-01T03:08:05.790Z,10.27
2022-12-01T03:10:36.087Z,12.95
2022-12-01T03:13:03.231Z,12.88
2022-12-01T03:15:49.248Z,12.00
2022-12-01T03:18:19.096Z,12.75
2022-12-01T03:21:12.271Z,11.25
2022-12-01T03:23:41.355Z,10.02
2022-12-01T03:26:10.536Z,14.68
2022-12-01T03:28:40.892Z,12.50
2022-12-01T03:31:09.681Z,14.05
2022-12-01T03:33:40.534Z,12.73
2022-12-01T03:36:07.712Z,12.48
2022-12-01T03:38:36.567Z,11.20
2022-12-01T03:41:07.553Z,13.38
2022-12-01T03:43:37.028Z,15.15
2022-12-01T03:46:09.175Z,10.63
2022-12-01T03:48:36.435Z,13.15
2022-12-01T03:51:18.876Z,13.88
2022-12-01T03:53:45.948Z,13.18
2022-12-01T03:56:15.032Z,11.60
2022-12-01T03:58:45.052Z,12.57
2022-12-01T04:01:12.686Z,14.32
2022-12-01T04:03:39.786Z,12.18
2022-12-01T04:06:07.074Z,12.25
2022-12-01T04:08:36.895Z,12.02
2022-12-01T04:11:28.227Z,9.88
2022-12-01T04:13:58.199Z,12.93
2022-12-01T04:16:25.324Z,12.85
2022-12-01T04:18:52.453Z,13.55
2022-12-01T04:21:19.596Z,12.25
2022-12-01T04:24:01.958Z,13.00
2022-12-01T04:26:30.317Z,13.13
2022-12-01T04:28:57.436Z,12.02
2022-12-01T04:31:24.583Z,11.90
2022-12-01T04:33:51.734Z,10.77
2022-12-01T04:36:18.858Z,13.55
2022-12-01T04:38:45.930Z,12.88
2022-12-01T04:41:13.425Z,10.35
2022-12-01T04:43:40.801Z,12.00
2022-12-01T04:46:08.349Z,10.60
2022-12-01T04:48:36.139Z,10.75
2022-12-01T04:51:04.102Z,9.23
2022-12-01T04:53:31.642Z,13.93
2022-12-01T04:56:00.609Z,10.38
2022-12-01T05:00:54.777Z,13.15
2022-12-01T05:03:21.922Z,12.57
2022-12-01T05:05:49.034Z,13.68
2022-12-01T05:08:16.143Z,11.52
2022-12-01T05:10:43.286Z,10.27
2022-12-01T05:13:10.391Z,12.35
2022-12-01T05:15:37.455Z,12.38
2022-12-01T05:18:04.848Z,14.07
2022-12-01T05:21:00.880Z,13.45
2022-12-01T05:23:28.972Z,11.07
2022-12-01T05:25:56.441Z,11.02
2022-12-01T05:28:24.410Z,9.63
2022-12-01T05:30:51.949Z,12.73
2022-12-01T05:33:19.128Z,11.88
2022-12-01T05:35:46.303Z,9.48
2022-12-01T05:41:42.322Z,10.93
2022-12-01T05:44:09.436Z,10.77
2022-12-01T05:46:36.579Z,10.93
2022-12-01T05:49:03.800Z,12.05
2022-12-01T05:51:30.856Z,11.27
2022-12-01T05:53:59.749Z,12.55
2022-12-01T05:56:27.071Z,14.82
2022-12-01T05:58:54.273Z,15.05
2022-12-01T06:01:21.411Z,16.40
2022-12-01T06:03:48.611Z,16.60
2022-12-01T06:06:15.812Z,14.25
2022-12-01T06:08:42.911Z,17.70
2022-12-01T06:11:09.972Z,17.33
2022-12-01T06:13:37.125Z,16.05
2022-12-01T06:16:05.787Z,15.27
2022-12-01T06:18:34.070Z,15.57
2022-12-01T06:21:01.315Z,16.75
2022-12-01T06:23:30.628Z,15.50
2022-12-01T06:25:58.135Z,13.65
2022-12-01T06:28:25.297Z,15.27
2022-12-01T06:30:54.527Z,15.45
2022-12-01T06:33:25.252Z,14.88
2022-12-01T06:35:59.634Z,14.38
2022-12-01T06:38:26.771Z,15.15
2022-12-01T06:40:53.907Z,15.95
2022-12-01T06:43:21.112Z,13.77
2022-12-01T06:45:48.625Z,14.52
2022-12-01T06:48:15.840Z,15.70
2022-12-01T06:50:43.038Z,14.75
2022-12-01T06:53:11.315Z,16.60
2022-12-01T06:55:39.168Z,15.60
2022-12-01T06:58:07.017Z,16.25
2022-12-01T07:00:34.539Z,15.45
2022-12-01T07:03:01.681Z,15.65
2022-12-01T07:05:28.864Z,16.67
2022-12-01T07:07:59.454Z,14.93
2022-12-01T07:10:28.121Z,16.48
2022-12-01T07:12:58.113Z,16.75
2022-12-01T07:15:25.264Z,15.75
2022-12-01T07:17:54.497Z,15.00
2022-12-01T07:20:21.898Z,13.07
2022-12-01T07:22:49.191Z,17.08
2022-12-01T07:25:16.478Z,17.80
2022-12-01T07:27:44.311Z,16.05
2022-12-01T07:30:12.922Z,17.98
2022-12-01T07:32:40.708Z,15.15
2022-12-01T07:35:09.182Z,15.10
2022-12-01T07:37:36.621Z,18.15
2022-12-01T07:40:03.905Z,15.57
2022-12-01T07:42:31.102Z,16.85
2022-12-01T07:44:58.342Z,26.52
2022-12-01T07:47:25.465Z,19.08
2022-12-01T07:49:52.612Z,20.65
2022-12-01T07:52:19.839Z,14.25
2022-12-01T07:54:46.972Z,19.38
2022-12-01T07:57:14.929Z,16.23
2022-12-01T07:59:42.050Z,21.23
2022-12-01T08:02:10.650Z,20.48
2022-12-01T08:04:57.697Z,23.17
2022-12-01T08:07:29.549Z,18.38
2022-12-01T08:10:15.926Z,15.82
2022-12-01T08:12:43.025Z,17.85
2022-12-01T08:15:10.357Z,19.58
2022-12-01T08:17:37.468Z,17.75
2022-12-01T08:20:06.072Z,19.30
2022-12-01T08:22:33.369Z,18.77
2022-12-01T08:25:00.706Z,17.58
2022-12-01T08:27:27.827Z,17.52
2022-12-01T08:29:55.126Z,19.10
2022-12-01T08:32:22.363Z,20.08
2022-12-01T08:34:53.543Z,19.73
2022-12-01T08:37:22.909Z,18.58
2022-12-01T08:39:52.329Z,18.08
2022-12-01T08:42:21.741Z,18.17
2022-12-01T08:44:49.109Z,17.73
2022-12-01T08:47:18.953Z,16.63
2022-12-01T08:49:46.726Z,16.95
2022-12-01T08:52:14.089Z,17.08
2022-12-01T08:54:51.488Z,17.42
2022-12-01T08:57:18.673Z,15.75
2022-12-01T08:59:46.283Z,18.02
2022-12-01T09:02:18.385Z,18.92
2022-12-01T09:11:08.982Z,18.92
2022-12-01T09:13:41.089Z,14.93
2022-12-01T09:16:27.274Z,18.10
2022-12-01T09:18:55.865Z,17.55
2022-12-01T09:21:25.139Z,17.20
2022-12-01T09:23:52.509Z,17.00
2022-12-01T09:26:20.075Z,18.52
2022-12-01T09:28:54.857Z,18.95
2022-12-01T09:31:30.063Z,18.67
2022-12-01T09:36:58.117Z,18.73
2022-12-01T09:39:25.718Z,15.85
2022-12-01T09:41:59.261Z,19.17
2022-12-01T09:44:36.491Z,18.70
2022-12-01T09:47:06.787Z,16.98
2022-12-01T09:49:55.675Z,19.98
2022-12-01T09:52:23.953Z,19.95
2022-12-01T09:54:51.430Z,18.98
2022-12-01T09:57:30.414Z,17.10
2022-12-01T09:59:58.651Z,17.77
2022-12-01T10:02:30.256Z,20.13
2022-12-01T10:04:58.765Z,18.83
2022-12-01T10:07:31.783Z,19.38
2022-12-01T10:10:00.275Z,19.52
2022-12-01T10:12:30.724Z,18.92
2022-12-01T10:15:21.254Z,19.52
2022-12-01T10:18:06.144Z,17.52
2022-12-01T10:20:39.412Z,20.33
2022-12-01T10:23:18.439Z,18.60
2022-12-01T10:26:12.672Z,17.60
2022-12-01T10:28:46.072Z,18.90
2022-12-01T10:31:21.143Z,19.10
2022-12-01T10:33:55.886Z,17.95
2022-12-01T10:36:23.502Z,17.55
2022-12-01T10:39:13.356Z,19.05
2022-12-01T10:48:46.612Z,19.65
2022-12-01T10:51:28.122Z,20.35
2022-12-01T10:54:02.922Z,19.05
2022-12-01T10:56:37.924Z,19.33
2022-12-01T11:01:37.917Z,21.15
2022-12-01T11:04:24.777Z,18.42
2022-12-01T11:06:52.183Z,20.73
2022-12-01T11:09:26.061Z,16.95
2022-12-01T11:15:11.300Z,18.40
2022-12-01T11:17:43.227Z,17.00
2022-12-01T11:20:27.022Z,21.17
2022-12-01T11:23:14.220Z,18.58
2022-12-01T11:25:41.455Z,18.20
2022-12-01T11:28:20.467Z,20.60
2022-12-01T11:30:51.275Z,20.88
2022-12-01T11:33:23.068Z,20.63
2022-12-01T11:35:50.591Z,19.17
2022-12-01T11:38:30.453Z,19.80
2022-12-01T11:40:58.594Z,17.75
2022-12-01T11:43:27.608Z,20.25
2022-12-01T11:48:22.090Z,19.50
2022-12-01T11:51:04.525Z,17.13
2022-12-01T11:53:34.637Z,17.10
2022-12-01T11:56:14.992Z,17.23
2022-12-01T11:58:47.025Z,15.43
2022-12-01T12:01:22.199Z,17.60
2022-12-01T12:04:14.234Z,17.65
2022-12-01T12:06:47.593Z,15.48
2022-12-01T12:09:45.111Z,17.40
2022-12-01T12:12:31.817Z,16.83
2022-12-01T12:15:34.593Z,13.80
2022-12-01T12:18:01.824Z,11.07
2022-12-01T12:20:44.985Z,17.75
2022-12-01T12:23:30.732Z,16.90
2022-12-01T12:26:10.703Z,13.75
2022-12-01T12:28:37.812Z,13.02
2022-12-01T12:31:24.986Z,16.17
2022-12-01T12:36:59.758Z,16.98
2022-12-01T12:39:30.013Z,11.93
2022-12-01T12:41:58.005Z,15.85
2022-12-01T12:44:37.555Z,14.60
2022-12-01T12:47:10.962Z,17.25
2022-12-01T12:49:54.819Z,16.65
2022-12-01T12:52:29.074Z,16.35
2022-12-01T12:54:59.807Z,15.23
2022-12-01T12:57:37.780Z,13.35
2022-12-01T13:00:14.024Z,13.27
2022-12-01T13:02:43.160Z,15.60
2022-12-01T13:05:19.483Z,17.23
2022-12-01T13:07:59.462Z,16.45
2022-12-01T13:10:26.808Z,16.63
2022-12-01T13:12:57.322Z,17.98
2022-12-01T13:15:24.629Z,16.73
2022-12-01T13:17:57.678Z,15.88
2022-12-01T13:20:28.844Z,16.67
2022-12-01T13:22:56.902Z,11.65
2022-12-01T13:25:30.425Z,12.88
2022-12-01T13:27:59.608Z,13.27
2022-12-01T13:30:27.289Z,15.15
2022-12-01T13:33:02.962Z,14.18
2022-12-01T13:35:31.771Z,13.30
2022-12-01T13:38:17.946Z,15.68
2022-12-01T13:40:45.174Z,15.38
2022-12-01T13:43:18.283Z,15.98
2022-12-01T13:45:45.541Z,16.67
2022-12-01T13:48:30.021Z,12.65
2022-12-01T13:50:58.651Z,14.32
2022-12-01T13:53:25.792Z,10.13
2022-12-01T13:55:55.883Z,10.57
2022-12-01T13:58:25.073Z,12.20
2022-12-01T14:00:52.325Z,15.15
2022-12-01T14:03:22.350Z,14.65
2022-12-01T14:06:07.514Z,14.27
2022-12-01T14:08:49.361Z,17.00
2022-12-01T14:11:16.493Z,16.02
2022-12-01T14:14:07.261Z,16.80
2022-12-01T14:16:51.475Z,14.15
2022-12-01T14:19:30.883Z,15.25
2022-12-01T14:21:58.095Z,15.80
2022-12-01T14:24:45.634Z,16.30
2022-12-01T14:27:12.810Z,16.60
2022-12-01T14:29:43.258Z,16.27
2022-12-01T14:32:10.584Z,17.13
2022-12-01T14:34:38.396Z,17.38
2022-12-01T14:37:10.648Z,16.50
2022-12-01T14:39:39.333Z,16.33
2022-12-01T14:42:34.608Z,16.60
2022-12-01T14:45:03.330Z,17.65
2022-12-01T14:47:35.093Z,17.65
2022-12-01T14:50:02.284Z,16.85
2022-12-01T14:52:29.463Z,17.23
2022-12-01T14:54:59.404Z,18.27
2022-12-01T14:57:30.038Z,15.90
2022-12-01T15:00:10.980Z,17.67
2022-12-01T15:02:42.026Z,16.33
2022-12-01T15:05:11.868Z,17.70
2022-12-01T15:07:44.530Z,16.88
2022-12-01T15:10:17.981Z,17.30
2022-12-01T15:12:45.302Z,16.70
2022-12-01T15:15:30.438Z,15.98
2022-12-01T15:18:01.828Z,16.20
2022-12-01T15:20:42.404Z,17.10
2022-12-01T15:23:17.034Z,18.52
2022-12-01T15:25:45.108Z,16.73
2022-12-01T15:28:41.682Z,17.00
2022-12-01T15:31:12.345Z,17.52
2022-12-01T15:33:46.837Z,16.55
2022-12-01T15:36:14.327Z,16.77
2022-12-01T15:38:43.363Z,17.15
2022-12-01T15:41:32.680Z,17.60
2022-12-01T15:44:05.622Z,15.25
2022-12-01T15:46:34.624Z,16.60
2022-12-01T15:49:18.829Z,18.38
2022-12-01T15:51:46.783Z,17.17
2022-12-01T15:54:19.536Z,16.33
2022-12-01T15:56:46.953Z,17.48
2022-12-01T15:59:14.197Z,18.02
2022-12-01T16:01:43.323Z,17.90
2022-12-01T16:04:21.803Z,23.85
2022-12-01T16:07:02.809Z,18.63
2022-12-01T16:09:38.315Z,16.90
2022-12-01T16:12:21.954Z,25.77
2022-12-01T16:14:56.817Z,23.48
2022-12-01T16:17:24.721Z,26.35
2022-12-01T16:20:12.213Z,20.52
2022-12-01T16:22:40.595Z,23.27
2022-12-01T16:25:17.329Z,26.20
2022-12-01T16:27:50.607Z,25.48
2022-12-01T16:30:23.341Z,23.02
2022-12-01T16:32:52.702Z,24.05
2022-12-01T16:35:25.012Z,17.50
2022-12-01T16:37:52.549Z,16.23
2022-12-01T16:40:19.837Z,18.50
2022-12-01T16:42:49.970Z,17.92
2022-12-01T16:45:18.486Z,18.35
2022-12-01T16:47:46.977Z,20.35
2022-12-01T16:50:18.815Z,20.52
2022-12-01T16:52:46.200Z,20.27
2022-12-01T16:55:19.688Z,20.05
2022-12-01T16:57:46.907Z,22.45
2022-12-01T17:00:14.491Z,27.17
2022-12-01T17:02:41.765Z,23.15
2022-12-01T17:05:11.270Z,23.92
2022-12-01T17:07:38.578Z,20.17
2022-12-01T17:10:07.368Z,20.50
2022-12-01T17:12:34.586Z,22.77
2022-12-01T17:15:01.752Z,23.75
2022-12-01T17:17:29.845Z,23.48
2022-12-01T17:19:57.292Z,22.65
2022-12-01T17:22:24.387Z,22.55
2022-12-01T17:24:51.781Z,22.60
2022-12-01T17:27:19.128Z,22.77
2022-12-01T17:29:46.721Z,23.75
2022-12-01T17:32:14.537Z,24.50
2022-12-01T17:34:41.818Z,24.65
2022-12-01T17:37:09.044Z,22.15
2022-12-01T17:39:36.186Z,22.15
2022-12-01T17:42:03.403Z,19.15
2022-12-01T17:44:30.554Z,23.50
2022-12-01T17:46:58.012Z,23.17
2022-12-01T17:49:25.219Z,19.70
2022-12-01T17:51:52.426Z,19.27
2022-12-01T17:54:19.872Z,18.75
2022-12-01T17:56:47.078Z,19.58
2022-12-01T17:59:14.353Z,19.25
2022-12-01T18:01:43.469Z,23.13
2022-12-01T18:04:10.744Z,18.83
2022-12-01T18:06:37.933Z,18.90
2022-12-01T18:09:05.235Z,16.35
2022-12-01T18:11:32.389Z,18.42
2022-12-01T18:14:01.362Z,19.77
2022-12-01T18:18:57.545Z,20.00
2022-12-01T18:21:25.576Z,17.88
2022-12-01T18:23:54.326Z,17.42
2022-12-01T18:26:22.212Z,51.72
2022-12-01T18:28:59.640Z,30.35
2022-12-01T18:31:27.288Z,24.08
2022-12-01T18:33:54.763Z,20.45
2022-12-01T18:36:22.729Z,19.58
2022-12-01T18:38:50.463Z,17.88
2022-12-01T18:41:17.984Z,18.13
2022-12-01T18:43:45.338Z,20.92
2022-12-01T18:46:13.372Z,21.45
2022-12-01T18:48:45.161Z,21.30
2022-12-01T18:51:12.550Z,19.33
2022-12-01T18:53:40.055Z,20.48
2022-12-01T18:56:10.300Z,19.30
2022-12-01T18:58:38.813Z,19.27
2022-12-01T19:01:17.514Z,20.55
2022-12-01T19:03:44.717Z,22.83
2022-12-01T19:06:12.942Z,26.65
2022-12-01T19:08:40.799Z,21.88
2022-12-01T19:11:08.343Z,22.60
2022-12-01T19:13:35.801Z,23.67
2022-12-01T19:16:13.746Z,21.88
2022-12-01T19:18:41.229Z,22.15
2022-12-01T19:21:09.843Z,17.95
2022-12-01T19:23:37.326Z,23.80
2022-12-01T19:26:05.499Z,51.75
2022-12-01T19:28:33.548Z,21.30
2022-12-01T19:31:00.862Z,30.55
2022-12-01T19:33:29.250Z,22.77
2022-12-01T19:35:56.481Z,19.75
2022-12-01T19:38:23.619Z,20.58
2022-12-01T19:40:50.984Z,19.63
2022-12-01T19:43:18.241Z,20.10
2022-12-01T19:45:45.504Z,18.15
2022-12-01T19:48:12.748Z,17.20
2022-12-01T19:50:40.597Z,17.23
2022-12-01T19:53:07.831Z,18.92
2022-12-01T19:55:37.069Z,18.88
2022-12-01T19:58:05.392Z,17.48
2022-12-01T20:00:32.889Z,19.08
2022-12-01T20:03:01.030Z,18.67
2022-12-01T20:05:28.322Z,16.10
2022-12-01T20:07:55.736Z,16.75
2022-12-01T20:10:23.287Z,15.02
2022-12-01T20:12:53.376Z,16.52
2022-12-01T20:15:20.572Z,17.45
2022-12-01T20:17:49.823Z,15.57
2022-12-01T20:20:17.733Z,16.55
2022-12-01T20:22:45.067Z,16.67
2022-12-01T20:25:12.384Z,16.33
2022-12-01T20:27:39.868Z,17.27
2022-12-01T20:30:10.058Z,16.65
2022-12-01T20:32:37.578Z,14.88
2022-12-01T20:35:04.893Z,17.17
2022-12-01T20:37:32.073Z,15.50
2022-12-01T20:39:59.239Z,15.50
2022-12-01T20:42:26.541Z,14.13
2022-12-01T20:44:53.799Z,16.92
2022-12-01T20:47:21.203Z,14.13
2022-12-01T20:49:48.448Z,15.52
2022-12-01T20:52:15.740Z,14.80
2022-12-01T20:54:43.107Z,16.00
2022-12-01T20:57:10.249Z,15.57
2022-12-01T20:59:38.233Z,13.32
2022-12-01T21:02:05.566Z,17.23
2022-12-01T21:04:32.823Z,17.05
2022-12-01T21:07:00.244Z,13.80
2022-12-01T21:09:27.516Z,13.30
2022-12-01T21:12:13.972Z,11.73
2022-12-01T21:14:48.693Z,11.63
2022-12-01T21:17:16.012Z,18.90
2022-12-01T21:19:50.752Z,14.48
2022-12-01T21:22:17.923Z,12.35
2022-12-01T21:24:46.555Z,15.50
2022-12-01T21:27:15.321Z,15.52
2022-12-01T21:29:44.967Z,16.55
2022-12-01T21:32:19.693Z,16.92
2022-12-01T21:34:47.867Z,14.55
2022-12-01T21:37:22.045Z,18.20
2022-12-01T21:39:50.973Z,13.23
2022-12-01T21:44:45.510Z,14.75
2022-12-01T21:47:21.118Z,17.48
2022-12-01T21:50:09.777Z,17.73
2022-12-01T21:52:41.086Z,16.45
2022-12-01T21:55:17.129Z,16.38
2022-12-01T21:57:48.675Z,16.73
2022-12-01T22:00:25.951Z,13.77
2022-12-01T22:02:59.065Z,15.52
2022-12-01T22:05:28.126Z,14.25
2022-12-01T22:08:10.636Z,17.48
2022-12-01T22:11:08.380Z,10.82
2022-12-01T22:13:38.202Z,17.88
2022-12-01T22:16:05.550Z,15.18
2022-12-01T22:18:40.017Z,16.52
2022-12-01T22:21:22.446Z,15.13
2022-12-01T22:24:01.721Z,15.70
2022-12-01T22:26:28.975Z,15.43
2022-12-01T22:28:57.683Z,14.32
2022-12-01T22:31:24.913Z,14.27
2022-12-01T22:34:01.552Z,15.90
2022-12-01T22:36:32.039Z,13.63
2022-12-01T22:38:59.473Z,13.23
2022-12-01T22:41:28.731Z,15.88
2022-12-01T22:44:00.681Z,14.73
2022-12-01T22:46:31.052Z,14.82
2022-12-01T22:48:59.743Z,13.40
2022-12-01T22:51:38.011Z,14.07
2022-12-01T22:54:10.992Z,17.25
2022-12-01T22:56:48.745Z,14.55
2022-12-01T22:59:17.023Z,15.82
2022-12-01T23:01:48.461Z,14.50
2022-12-01T23:04:31.071Z,16.85
2022-12-01T23:07:02.732Z,16.80
2022-12-01T23:09:32.741Z,16.73
2022-12-01T23:12:02.621Z,16.55
2022-12-01T23:14:29.821Z,15.60
2022-12-01T23:17:05.453Z,16.88
2022-12-01T23:19:33.600Z,16.00
2022-12-01T23:22:00.749Z,17.80
2022-12-01T23:24:33.525Z,14.10
2022-12-01T23:27:01.105Z,12.95
2022-12-01T23:29:28.383Z,18.58
2022-12-01T23:31:56.057Z,16.15
2022-12-01T23:34:23.219Z,16.70
2022-12-01T23:36:51.102Z,17.23
2022-12-01T23:39:19.147Z,20.10
2022-12-01T23:41:50.209Z,18.52
2022-12-01T23:44:17.279Z,21.00
2022-12-01T23:46:44.461Z,18.23
2022-12-01T23:49:13.630Z,17.80
2022-12-01T23:51:43.352Z,20.13
2022-12-01T23:54:36.574Z,20.17
2022-12-01T23:57:17.620Z,15.85
2022-12-01T23:59:45.080Z,17.25
